Weather at Arco Newtown Heliport

Public forecast

Using degrees Fahrenheit for public forecast. Weather courtesy of forecast.io.

Closest aviation weather report (METAR) to Arco Newtown Heliport

Closest report is Brandywine Regional Airport, 7.9 nm (14.6 km) W. Retrieved 2022/01/22 20:35 UTC (21 minutes ago):

KOQN 222035Z AUTO 00000KT 10SM CLR 00/M18 A3022 RMK AO2

Closest aviation forecast (TAF) to Arco Newtown Heliport

Closest forecast is Philadelphia International Airport, 10.6 nm (19.7 km) SE. Retrieved 2022/01/22 18:37 UTC (2 hours ago):

TAF KPHL 221733Z 2218/2324 VRB03KT P6SM SCT200 FM230600 25005KT P6SM SCT200 FM231400 26009KT P6SM SCT120 BKN200 FM231800 26009KT P6SM SCT035 OVC070 FM232200 27004KT P6SM -SN SCT025 OVC050